Time;durP1;ratioP1;P1;durP2;ratioP2;P2;SDS_P1;SDS_P2;PMS_P1;PMS_P2;Temp;Humidity;BMP_temperature;BMP_pressure;BME280_temperature;BME280_humidity;BME280_pressure;Samples;Min_cycle;Max_cycle;Signal;HPM_P1;HPM_P2
2023/01/15 00:01:37;;;;;;;;;;;10.80;88.90;;;9.72;72.25;98923.56;6151685;23;19986;-75
2023/01/15 00:04:07;;;;;;;;;;;10.80;88.90;;;9.80;72.39;98928.47;6150176;23;19927;-76
2023/01/15 00:06:36;;;;;;;;;;;10.90;88.90;;;9.80;71.99;98939.91;6151339;23;19927;-76
2023/01/15 00:09:04;;;;;;;;;;;10.90;88.40;;;9.82;71.93;98934.38;6151711;23;19958;-76
2023/01/15 00:11:31;;;;;;;;;;;10.90;88.60;;;9.79;71.17;98921.53;6151850;23;19916;-76
2023/01/15 00:13:58;;;;;;;;;;;10.90;88.00;;;9.69;71.38;98916.88;6150870;23;19921;-76
2023/01/15 00:16:26;;;;;;;;;;;10.90;88.10;;;9.71;72.02;98916.59;6150922;23;19921;-76
2023/01/15 00:18:56;;;;;;;;;;;10.90;88.30;;;9.70;71.37;98915.81;6151372;23;19946;-76
2023/01/15 00:21:25;;;;;;;;;;;10.80;87.80;;;9.68;71.59;98939.22;6150233;23;20357;-76
2023/01/15 00:29:23;;;;;;;;;;;10.80;88.40;;;9.69;72.00;98932.84;6149952;23;19971;-76
2023/01/15 00:31:53;;;;;;;;;;;10.80;88.10;;;9.59;70.95;98922.03;6149683;23;19927;-75
2023/01/15 00:34:20;;;;;;;;;;;10.70;87.50;;;9.47;70.86;98932.78;6150968;23;19987;-76
2023/01/15 00:36:48;;;;;;;;;;;10.60;87.40;;;9.49;71.51;98948.50;6148747;23;20012;-76
2023/01/15 00:39:15;;;;;;;;;;;10.60;88.00;;;9.42;71.41;98935.34;6149140;23;19927;-76
2023/01/15 00:41:42;;;;;;;;;;;10.50;87.90;;;9.44;71.70;98909.28;6151717;23;19931;-75
2023/01/15 00:44:09;;;;;;;;;;;10.50;88.00;;;9.34;70.62;98917.13;6149457;23;19931;-76
2023/01/15 00:46:37;;;;;;;;;;;10.50;86.90;;;9.19;70.46;98908.88;6149625;23;19917;-76
2023/01/15 00:49:04;;;;;;;;;;;10.40;87.10;;;9.16;72.28;98896.06;6149649;23;20258;-75
2023/01/15 00:51:31;;;;;;;;;;;10.40;88.40;;;9.15;73.05;98897.91;6149553;23;19916;-76
2023/01/15 00:54:00;;;;;;;;;;;10.40;88.50;;;9.25;72.59;98887.44;6148217;23;19921;-76
2023/01/15 00:56:27;;;;;;;;;;;10.40;88.30;;;9.29;72.76;98895.75;6150890;23;20343;-76
2023/01/15 00:58:54;;;;;;;;;;;10.50;88.70;;;9.30;72.09;98892.03;6151389;23;20533;-76
2023/01/15 01:01:21;;;;;;;;;;;10.50;88.00;;;9.33;71.79;98877.47;6150788;23;19916;-76
2023/01/15 01:03:51;;;;;;;;;;;10.50;87.90;;;9.28;72.13;98886.97;6150890;23;20339;-76
2023/01/15 01:06:19;;;;;;;;;;;10.50;88.00;;;9.37;72.07;98899.84;6149121;23;20505;-76
2023/01/15 01:08:46;;;;;;;;;;;10.50;88.10;;;9.43;71.81;98888.25;6149819;23;19924;-76
2023/01/15 01:11:16;;;;;;;;;;;10.60;88.00;;;9.44;71.96;98873.91;6148767;23;19972;-76
2023/01/15 01:13:44;;;;;;;;;;;10.60;88.10;;;9.38;72.04;98865.03;6151122;23;19955;-76
2023/01/15 01:16:26;;;;;;;;;;;10.60;88.00;;;9.41;72.07;98877.84;6150616;23;20252;-76
2023/01/15 01:18:53;;;;;;;;;;;10.60;87.90;;;9.40;71.46;98894.06;6151594;23;20271;-76
2023/01/15 01:21:21;;;;;;;;;;;10.60;87.30;;;9.41;71.18;98911.63;6151025;23;19928;-76
2023/01/15 01:23:48;;;;;;;;;;;10.60;87.30;;;9.42;71.23;98907.91;6149089;23;19917;-76
2023/01/15 01:26:17;;;;;;;;;;;10.60;87.30;;;9.44;70.78;98911.97;6148116;23;19928;-76
2023/01/15 01:28:48;;;;;;;;;;;10.50;87.10;;;9.44;70.54;98937.75;6148953;23;19920;-76
2023/01/15 01:31:15;;;;;;;;;;;10.50;87.10;;;9.48;70.57;98928.25;6150933;23;19931;-76
2023/01/15 01:33:41;;;;;;;;;;;10.60;87.10;;;9.48;70.10;98933.56;6148915;23;19921;-75
2023/01/15 01:36:08;;;;;;;;;;;10.60;86.70;;;9.44;70.29;98925.25;6150557;23;20506;-76
2023/01/15 01:38:35;;;;;;;;;;;10.60;86.70;;;9.42;69.76;98921.22;6151344;23;19920;-76
2023/01/15 01:41:02;;;;;;;;;;;10.60;86.20;;;9.36;69.91;98938.94;6150593;23;20007;-76
2023/01/15 01:43:31;;;;;;;;;;;10.50;86.50;;;9.35;70.03;98939.22;6150899;23;19921;-76
2023/01/15 01:45:59;;;;;;;;;;;10.50;86.40;;;9.35;70.29;98925.91;6148524;23;19920;-76
2023/01/15 01:48:29;;;;;;;;;;;10.50;86.60;;;9.35;69.27;98928.56;6149402;23;19924;-77
2023/01/15 01:50:57;;;;;;;;;;;10.50;85.90;;;9.28;69.29;98916.22;6150952;23;19927;-76
2023/01/15 01:53:27;;;;;;;;;;;10.40;85.60;;;9.24;69.37;98928.41;6149084;23;20336;-76
2023/01/15 01:55:55;;;;;;;;;;;10.40;86.00;;;9.31;69.43;98930.09;6148767;23;19920;-76
2023/01/15 01:58:23;;;;;;;;;;;10.40;86.00;;;9.27;69.51;98941.22;6149541;23;19959;-75
2023/01/15 02:00:52;;;;;;;;;;;10.40;86.20;;;9.30;69.04;98937.25;6149105;23;19921;-76
2023/01/15 02:03:21;;;;;;;;;;;10.40;85.70;;;9.17;67.99;98941.03;6148796;23;19926;-76
2023/01/15 02:05:52;;;;;;;;;;;10.40;84.80;;;9.17;69.14;98943.69;6150148;23;20008;-76
2023/01/15 02:08:19;;;;;;;;;;;10.40;85.70;;;9.16;69.12;98944.75;6150643;23;19923;-76
2023/01/15 02:10:49;;;;;;;;;;;10.30;85.80;;;9.21;68.93;98942.16;6150602;23;20000;-76
2023/01/15 02:13:20;;;;;;;;;;;10.40;85.60;;;9.14;68.51;98932.75;6150790;23;20023;-76
2023/01/15 02:15:50;;;;;;;;;;;10.30;85.40;;;9.14;68.55;98935.41;6152734;23;19916;-76
2023/01/15 02:18:22;;;;;;;;;;;10.30;85.50;;;9.14;68.83;98938.88;6150525;23;19971;-76
2023/01/15 02:20:53;;;;;;;;;;;10.30;85.70;;;9.19;69.09;98928.31;6149501;23;19958;-75
2023/01/15 02:23:47;;;;;;;;;;;10.30;85.70;;;9.20;69.01;98910.50;6151077;23;20003;-76
2023/01/15 02:26:56;;;;;;;;;;;10.30;85.80;;;9.14;67.77;98916.78;6149838;23;20392;-76
2023/01/15 02:29:29;;;;;;;;;;;10.30;84.60;;;9.09;67.80;98919.34;6151229;23;19924;-75
2023/01/15 02:31:57;;;;;;;;;;;10.30;84.60;;;9.09;68.16;98914.84;6151209;23;20472;-76
2023/01/15 02:34:26;;;;;;;;;;;10.30;85.10;;;9.17;68.19;98933.03;6150742;23;19920;-75
2023/01/15 02:37:01;;;;;;;;;;;10.30;85.20;;;9.20;67.47;98921.13;6149828;23;19932;-76
2023/01/15 02:39:30;;;;;;;;;;;10.30;84.60;;;9.16;68.08;98930.63;6151210;23;20024;-75
2023/01/15 02:42:03;;;;;;;;;;;10.30;85.10;;;9.19;68.28;98909.69;6150359;23;19921;-76
2023/01/15 02:44:38;;;;;;;;;;;10.30;85.40;;;9.24;68.08;98903.66;6150115;23;19920;-76
2023/01/15 02:47:07;;;;;;;;;;;10.30;85.20;;;9.17;67.58;98897.66;6150573;23;19927;-76
2023/01/15 02:49:34;;;;;;;;;;;10.30;84.70;;;9.09;67.65;98884.78;6150585;23;19975;-76
2023/01/15 02:52:07;;;;;;;;;;;10.30;84.50;;;9.09;67.84;98892.75;6150675;23;19999;-76
2023/01/15 02:54:41;;;;;;;;;;;10.30;84.50;;;9.06;67.28;98882.59;6149590;23;19959;-76
2023/01/15 02:57:10;;;;;;;;;;;10.30;83.90;;;8.97;66.59;98904.25;6150249;23;19925;-76
2023/01/15 02:59:41;;;;;;;;;;;10.20;83.30;;;9.00;67.73;98905.63;6151021;23;19916;-76
2023/01/15 03:02:11;;;;;;;;;;;10.20;84.50;;;9.11;68.04;98893.31;6150183;23;19938;-76
2023/01/15 03:04:41;;;;;;;;;;;10.30;84.70;;;9.09;67.90;98904.19;6151878;23;19916;-76
2023/01/15 03:07:14;;;;;;;;;;;10.30;84.50;;;9.16;67.55;98898.72;6150364;23;19927;-76
2023/01/15 03:09:42;;;;;;;;;;;10.30;84.50;;;9.13;67.08;98888.59;6150614;23;19921;-76
2023/01/15 03:12:15;;;;;;;;;;;10.30;84.20;;;9.18;67.33;98892.13;6149371;23;19924;-76
2023/01/15 03:14:49;;;;;;;;;;;10.30;84.30;;;9.17;66.58;98897.66;6150440;23;20366;-77
2023/01/15 03:17:20;;;;;;;;;;;10.30;83.60;;;9.19;66.64;98892.94;6149368;23;19917;-76
2023/01/15 03:19:51;;;;;;;;;;;10.30;83.90;;;9.16;67.16;98893.41;6150299;23;20059;-76
2023/01/15 03:22:23;;;;;;;;;;;10.30;84.00;;;9.16;66.54;98894.19;6150758;23;19920;-76
2023/01/15 03:24:52;;;;;;;;;;;10.30;83.50;;;9.15;66.37;98892.59;6151977;23;19958;-76
2023/01/15 03:27:21;;;;;;;;;;;10.30;83.50;;;9.17;66.81;98895.81;6147930;23;20521;-76
2023/01/15 03:29:58;;;;;;;;;;;10.30;83.80;;;9.19;66.73;98877.78;6149450;23;19924;-76
2023/01/15 03:32:25;;;;;;;;;;;10.40;83.80;;;9.08;65.55;98860.03;6149576;23;20339;-75
2023/01/15 03:34:54;;;;;;;;;;;10.30;82.40;;;8.98;66.77;98881.16;6152061;23;19927;-76
2023/01/15 03:37:24;;;;;;;;;;;10.20;83.50;;;9.01;67.16;98864.69;6149440;23;20237;-76
2023/01/15 03:39:55;;;;;;;;;;;10.20;83.70;;;9.06;66.77;98866.63;6150470;23;20002;-75
2023/01/15 03:42:31;;;;;;;;;;;10.20;83.50;;;9.11;67.01;98859.53;6150276;23;19920;-76
2023/01/15 03:45:04;;;;;;;;;;;10.30;83.90;;;9.03;66.52;98857.31;6152162;23;19916;-75
2023/01/15 03:47:38;;;;;;;;;;;10.30;83.50;;;9.03;67.11;98852.00;6151328;23;19999;-76
2023/01/15 03:50:13;;;;;;;;;;;10.30;84.20;;;9.05;66.96;98857.06;6150261;23;20690;-76
2023/01/15 03:52:48;;;;;;;;;;;10.30;83.70;;;9.12;67.01;98863.00;6151871;23;19920;-76
2023/01/15 03:55:20;;;;;;;;;;;10.30;83.80;;;9.15;66.70;98873.19;6150197;23;19925;-76
2023/01/15 03:57:58;;;;;;;;;;;10.30;83.50;;;9.10;65.09;98860.59;6148563;23;20016;-76
2023/01/15 04:00:28;;;;;;;;;;;10.30;82.00;;;9.04;66.29;98856.25;6149402;23;19920;-76
2023/01/15 04:02:59;;;;;;;;;;;10.40;83.40;;;9.09;66.58;98866.16;6150371;23;19971;-76
2023/01/15 04:05:30;;;;;;;;;;;10.30;83.40;;;9.05;66.46;98868.50;6149819;23;19920;-76
2023/01/15 04:07:58;;;;;;;;;;;10.20;83.50;;;9.08;66.37;98864.53;6149362;23;19963;-76
2023/01/15 04:10:25;;;;;;;;;;;10.20;83.50;;;9.02;66.32;98864.44;6149822;23;19939;-76
2023/01/15 04:12:53;;;;;;;;;;;10.20;83.20;;;9.06;66.00;98877.28;6150136;23;19948;-76
2023/01/15 04:15:22;;;;;;;;;;;10.20;83.10;;;9.09;65.99;98871.50;6149565;23;19948;-76
2023/01/15 04:17:49;;;;;;;;;;;10.20;83.10;;;9.09;65.99;98874.94;6148830;23;19917;-76
2023/01/15 04:20:16;;;;;;;;;;;10.20;83.30;;;8.98;66.00;98875.84;6150139;23;19920;-76
2023/01/15 04:22:45;;;;;;;;;;;10.20;82.80;;;8.95;66.46;98870.97;6149752;23;19927;-76
2023/01/15 04:25:12;;;;;;;;;;;10.20;83.30;;;8.92;66.95;98866.13;6150846;23;19920;-76
2023/01/15 04:27:39;;;;;;;;;;;10.10;83.70;;;8.94;66.20;98866.72;6150627;23;19916;-76
2023/01/15 04:30:07;;;;;;;;;;;10.10;83.50;;;8.93;66.69;98863.25;6151541;23;19916;-76
2023/01/15 04:32:35;;;;;;;;;;;10.10;83.70;;;8.94;66.68;98877.34;6151638;23;19999;-76
2023/01/15 04:35:02;;;;;;;;;;;10.10;83.50;;;8.92;66.69;98892.72;6151526;23;19920;-76
2023/01/15 04:37:29;;;;;;;;;;;10.10;83.50;;;8.97;66.83;98895.47;6150947;23;19954;-76
2023/01/15 04:39:56;;;;;;;;;;;10.10;83.80;;;8.96;66.78;98889.34;6151676;23;20003;-76
2023/01/15 04:45:08;;;;;;;;;;;10.10;84.00;;;8.90;67.42;98894.81;6151554;23;20273;-76
2023/01/15 04:47:37;;;;;;;;;;;10.10;84.20;;;8.91;67.16;98899.09;6149905;23;19938;-76
2023/01/15 04:50:04;;;;;;;;;;;10.00;83.80;;;8.88;66.66;98891.59;6149827;23;19920;-76
2023/01/15 04:52:31;;;;;;;;;;;10.10;83.40;;;8.82;66.58;98881.91;6151436;23;19947;-77
2023/01/15 04:54:58;;;;;;;;;;;10.00;83.30;;;8.81;67.01;98885.63;6151434;23;19920;-76
2023/01/15 04:57:25;;;;;;;;;;;10.00;83.70;;;8.84;66.80;98885.16;6150655;23;19920;-77
2023/01/15 04:59:52;;;;;;;;;;;10.00;83.50;;;8.89;66.79;98887.91;6151449;23;20327;-77
2023/01/15 05:02:19;;;;;;;;;;;10.00;83.70;;;8.82;66.03;98882.72;6151485;23;19916;-77
2023/01/15 05:04:47;;;;;;;;;;;10.00;82.70;;;8.76;66.54;98884.47;6149033;23;19920;-77
2023/01/15 05:07:14;;;;;;;;;;;10.00;83.40;;;8.76;67.16;98891.66;6150593;23;19943;-77
2023/01/15 05:09:41;;;;;;;;;;;9.90;83.80;;;8.81;66.69;98891.75;6149668;23;19916;-77
2023/01/15 05:12:08;;;;;;;;;;;9.90;83.30;;;8.81;66.21;98888.28;6151436;23;19927;-77
2023/01/15 05:14:35;;;;;;;;;;;10.00;83.10;;;8.84;66.89;98890.47;6149661;23;20255;-76
2023/01/15 05:17:02;;;;;;;;;;;10.00;83.70;;;8.83;66.80;98891.50;6150859;23;19921;-76
2023/01/15 05:19:29;;;;;;;;;;;10.30;83.90;;;8.76;66.61;98884.47;6149532;23;19917;-77
2023/01/15 05:21:57;;;;;;;;;;;10.00;83.30;;;8.80;66.50;98879.50;6151639;23;19924;-76
2023/01/15 05:24:24;;;;;;;;;;;10.00;83.20;;;8.79;66.80;98893.03;6150252;23;20323;-76
2023/01/15 05:26:59;;;;;;;;;;;9.90;83.50;;;8.76;66.78;98889.78;6149588;23;19916;-76
2023/01/15 05:29:32;;;;;;;;;;;10.00;83.50;;;8.78;66.78;98892.19;6150793;23;20594;-75
2023/01/15 05:32:00;;;;;;;;;;;10.00;83.10;;;8.80;66.34;98884.81;6151221;23;19975;-76
2023/01/15 05:34:26;;;;;;;;;;;10.00;83.00;;;8.76;66.14;98883.69;6150936;23;19920;-75
2023/01/15 05:36:54;;;;;;;;;;;9.90;83.10;;;8.67;66.29;98885.91;6150218;23;19944;-75
2023/01/15 05:39:22;;;;;;;;;;;9.90;83.10;;;8.68;66.83;98892.81;6151095;23;19926;-76
2023/01/15 05:41:49;;;;;;;;;;;9.90;83.60;;;8.69;67.01;98886.50;6153065;23;19924;-76
2023/01/15 05:44:18;;;;;;;;;;;9.90;83.70;;;8.67;66.32;98880.59;6153227;23;19920;-76
2023/01/15 05:46:45;;;;;;;;;;;9.90;83.00;;;8.68;66.82;98884.84;6152351;23;19923;-76
2023/01/15 05:49:14;;;;;;;;;;;9.90;83.50;;;8.71;66.45;98886.25;6152797;23;20259;-76
2023/01/15 05:51:41;;;;;;;;;;;9.90;83.40;;;8.69;66.67;98873.19;6153158;23;19920;-77
2023/01/15 05:54:12;;;;;;;;;;;9.90;83.50;;;8.64;66.64;98883.75;6152828;23;19920;-77
2023/01/15 05:56:41;;;;;;;;;;;9.80;83.50;;;8.66;66.46;98889.63;6152389;23;19946;-78
2023/01/15 05:59:08;;;;;;;;;;;9.80;83.20;;;8.65;66.64;98892.50;6152756;23;20336;-77
2023/01/15 06:01:36;;;;;;;;;;;9.80;83.50;;;8.62;66.96;98904.41;6153364;23;19917;-81
2023/01/15 06:04:04;;;;;;;;;;;9.80;83.70;;;8.66;66.66;98896.78;6151357;23;20384;-85
2023/01/15 06:06:32;;;;;;;;;;;9.80;83.60;;;8.62;66.56;98895.63;6152930;23;20009;-79
2023/01/15 06:08:59;;;;;;;;;;;9.80;83.50;;;8.60;67.05;98901.19;6153176;23;19924;-79
2023/01/15 06:11:26;;;;;;;;;;;9.70;83.80;;;8.53;66.50;98889.88;6152338;23;19921;-80
2023/01/15 06:13:55;;;;;;;;;;;9.70;83.50;;;8.56;67.24;98916.00;6152836;23;19920;-79
2023/01/15 06:16:22;;;;;;;;;;;9.70;84.10;;;8.56;66.95;98910.69;6151851;23;20236;-79
2023/01/15 06:18:49;;;;;;;;;;;9.70;83.80;;;8.55;66.73;98913.59;6152835;23;20351;-80
2023/01/15 06:21:16;;;;;;;;;;;9.70;83.90;;;8.61;67.26;98910.78;6152875;23;19920;-80
2023/01/15 06:23:43;;;;;;;;;;;9.70;84.10;;;8.61;66.88;98918.75;6153039;23;19916;-80
2023/01/15 06:26:12;;;;;;;;;;;9.70;83.90;;;8.61;67.07;98921.41;6152072;23;19923;-79
2023/01/15 06:28:39;;;;;;;;;;;9.70;84.20;;;8.60;67.72;98916.34;6152123;23;19925;-79
2023/01/15 06:31:09;;;;;;;;;;;9.80;84.60;;;8.62;66.96;98911.59;6152562;23;19948;-78
2023/01/15 06:33:36;;;;;;;;;;;9.80;83.60;;;8.61;66.79;98910.78;6152774;23;19930;-79
2023/01/15 06:36:04;;;;;;;;;;;9.80;83.60;;;8.64;66.94;98907.66;6152089;23;20361;-79
2023/01/15 06:38:31;;;;;;;;;;;9.80;83.70;;;8.66;66.82;98900.25;6152395;23;19921;-79
2023/01/15 06:41:00;;;;;;;;;;;9.80;83.70;;;8.62;66.22;98904.41;6152830;23;19955;-79
2023/01/15 06:48:57;;;;;;;;;;;9.70;82.90;;;8.55;66.27;98913.59;6150731;23;19920;-79
2023/01/15 06:51:24;;;;;;;;;;;9.90;83.30;;;8.58;66.65;98897.94;6152182;23;19927;-79
2023/01/15 06:53:54;;;;;;;;;;;9.70;83.70;;;8.57;67.02;98912.28;6152502;23;19927;-79
2023/01/15 06:56:21;;;;;;;;;;;9.80;83.70;;;8.58;66.71;98903.25;6151609;23;19920;-79
2023/01/15 06:58:48;;;;;;;;;;;9.80;83.40;;;8.50;66.52;98917.75;6152648;23;20497;-79
2023/01/15 07:01:16;;;;;;;;;;;9.70;83.30;;;8.52;66.74;98899.72;6151829;23;19964;-79
2023/01/15 07:03:43;;;;;;;;;;;9.70;83.40;;;8.48;66.64;98909.19;6150927;23;19935;-79
2023/01/15 07:06:12;;;;;;;;;;;9.70;83.40;;;8.48;66.85;98911.84;6149971;23;19931;-79
2023/01/15 07:08:40;;;;;;;;;;;9.70;83.50;;;8.42;65.89;98906.69;6152416;23;19920;-79
2023/01/15 07:11:09;;;;;;;;;;;9.70;82.60;;;8.42;66.07;98899.50;6150561;23;19947;-80
2023/01/15 07:13:37;;;;;;;;;;;9.60;82.70;;;8.42;65.86;98896.06;6152451;23;19917;-79
2023/01/15 07:16:05;;;;;;;;;;;9.60;82.50;;;8.40;66.42;98901.59;6151160;23;19921;-79
2023/01/15 07:18:33;;;;;;;;;;;9.60;83.10;;;8.38;66.07;98914.31;6152044;23;20481;-79
2023/01/15 07:21:00;;;;;;;;;;;9.60;82.70;;;8.35;65.38;98914.75;6152330;23;19920;-79
2023/01/15 07:23:28;;;;;;;;;;;9.50;82.40;;;8.30;65.96;98909.34;6151951;23;19928;-79
2023/01/15 07:25:55;;;;;;;;;;;9.50;82.50;;;8.29;66.28;98909.56;6151114;23;19926;-79
2023/01/15 07:28:24;;;;;;;;;;;9.50;82.90;;;8.30;66.36;98911.19;6151982;23;20510;-79
2023/01/15 07:30:51;;;;;;;;;;;9.50;82.90;;;8.36;66.77;98926.19;6151915;23;19920;-79
2023/01/15 07:33:18;;;;;;;;;;;9.60;83.30;;;8.39;66.33;98931.84;6152223;23;19917;-79
2023/01/15 07:35:47;;;;;;;;;;;9.60;82.70;;;8.43;66.19;98934.84;6151502;23;19920;-79
2023/01/15 07:38:14;;;;;;;;;;;9.60;82.90;;;8.50;65.78;98930.22;6150179;23;19920;-79
2023/01/15 07:51:47;;;;;;;;;;;9.70;81.30;;;8.50;64.71;98948.81;6152220;23;19924;-80
2023/01/15 07:54:15;;;;;;;;;;;9.70;81.60;;;8.57;64.88;98954.81;6152137;23;20319;-80
2023/01/15 07:56:42;;;;;;;;;;;9.50;81.80;;;8.52;64.43;98944.06;6149513;23;19927;-80
2023/01/15 07:59:09;;;;;;;;;;;9.70;81.20;;;8.51;65.07;98961.06;6151930;23;19921;-79
2023/01/15 08:01:36;;;;;;;;;;;9.70;82.00;;;8.51;64.15;98947.78;6151818;23;19972;-79
2023/01/15 08:04:03;;;;;;;;;;;9.70;81.00;;;8.45;64.04;98952.19;6151678;23;19927;-78
2023/01/15 08:06:32;;;;;;;;;;;9.70;81.00;;;8.45;65.17;98962.00;6150285;23;19925;-78
2023/01/15 08:09:00;;;;;;;;;;;9.60;82.00;;;8.46;64.63;98963.63;6151631;23;20044;-77
2023/01/15 08:16:56;;;;;;;;;;;9.50;81.30;;;8.34;64.61;98966.25;6151214;23;19927;-77
2023/01/15 08:19:24;;;;;;;;;;;9.60;81.90;;;8.30;65.56;98970.44;6151721;23;19923;-77
2023/01/15 08:21:51;;;;;;;;;;;9.50;82.50;;;8.31;65.22;98972.03;6151398;23;19956;-77
2023/01/15 08:24:19;;;;;;;;;;;9.50;82.10;;;8.22;64.50;98976.09;6149889;23;20011;-77
2023/01/15 08:26:46;;;;;;;;;;;9.40;81.20;;;8.11;64.38;98979.56;6151299;23;19925;-77
2023/01/15 08:29:13;;;;;;;;;;;9.40;81.00;;;8.08;65.09;98991.44;6151768;23;19920;-77
2023/01/15 08:31:40;;;;;;;;;;;9.30;81.80;;;8.08;65.30;98985.34;6151586;23;20585;-77
2023/01/15 08:34:07;;;;;;;;;;;9.30;81.80;;;8.07;65.15;98981.88;6151315;23;19916;-77
2023/01/15 08:36:34;;;;;;;;;;;9.30;81.70;;;8.08;64.89;98986.13;6148815;23;20330;-77
2023/01/15 08:39:01;;;;;;;;;;;9.30;81.60;;;8.06;64.48;98990.88;6148238;23;19942;-77
2023/01/15 08:41:30;;;;;;;;;;;9.30;81.40;;;8.06;65.78;99000.69;6151563;23;20302;-77
2023/01/15 08:43:58;;;;;;;;;;;9.30;82.70;;;8.14;65.18;98987.88;6150935;23;19923;-77
2023/01/15 08:46:25;;;;;;;;;;;9.30;81.90;;;8.16;64.49;99000.94;6150731;23;20555;-77
2023/01/15 08:48:52;;;;;;;;;;;9.30;81.60;;;8.09;64.73;98997.56;6151549;23;19916;-77
2023/01/15 08:51:19;;;;;;;;;;;9.20;81.80;;;8.11;64.97;99003.47;6151656;23;19986;-80
2023/01/15 08:53:46;;;;;;;;;;;9.30;81.80;;;8.04;64.19;98994.78;6150677;23;19925;-80
2023/01/15 08:56:15;;;;;;;;;;;9.20;81.20;;;8.08;64.62;98993.31;6151104;23;19947;-80
2023/01/15 08:58:43;;;;;;;;;;;9.20;81.50;;;7.99;63.61;98993.63;6151200;23;19921;-79
2023/01/15 09:01:14;;;;;;;;;;;9.20;80.40;;;8.04;64.13;98992.94;6152278;23;19924;-81
2023/01/15 09:03:42;;;;;;;;;;;9.20;81.40;;;7.96;63.20;99007.38;6151152;23;20444;-83
2023/01/15 09:06:13;;;;;;;;;;;9.20;80.20;;;7.98;63.73;99010.63;6149860;23;20355;-79
2023/01/15 09:08:40;;;;;;;;;;;9.10;80.60;;;7.98;64.21;99020.44;6150340;23;19924;-79
2023/01/15 09:11:08;;;;;;;;;;;9.10;81.20;;;7.99;63.70;99022.03;6150920;23;19922;-79
2023/01/15 09:13:36;;;;;;;;;;;9.20;80.60;;;8.01;63.29;99009.34;6150731;23;20011;-79
2023/01/15 09:16:08;;;;;;;;;;;9.20;80.10;;;7.91;62.00;99019.75;6151966;23;19948;-79
2023/01/15 09:18:51;;;;;;;;;;;9.10;79.00;;;7.70;61.95;99018.41;6153201;23;19916;-79
2023/01/15 09:21:21;;;;;;;;;;;9.00;78.60;;;7.78;62.64;99020.75;6151734;23;19931;-79
2023/01/15 09:23:48;;;;;;;;;;;9.00;79.30;;;7.79;62.01;99018.91;6152971;23;19921;-79
2023/01/15 09:26:26;;;;;;;;;;;9.00;79.10;;;7.83;62.18;99018.22;6152661;23;19920;-79
2023/01/15 09:28:53;;;;;;;;;;;9.00;78.90;;;7.80;63.14;99023.97;6153534;23;19920;-79
2023/01/15 09:31:23;;;;;;;;;;;9.10;80.00;;;7.83;62.08;99010.25;6153594;23;20321;-79
2023/01/15 09:33:50;;;;;;;;;;;9.00;78.80;;;7.80;62.36;99013.34;6151363;23;19924;-79
2023/01/15 09:36:18;;;;;;;;;;;9.00;78.90;;;7.84;62.16;99005.75;6152448;23;19927;-79
2023/01/15 09:38:45;;;;;;;;;;;9.00;79.20;;;7.86;62.72;99009.00;6153456;23;19920;-78
2023/01/15 09:44:01;;;;;;;;;;;9.10;79.50;;;7.92;62.74;99006.22;6149159;23;19920;-79
2023/01/15 09:46:35;;;;;;;;;;;9.10;79.60;;;7.78;61.95;98993.41;6153028;23;19916;-79
2023/01/15 09:49:10;;;;;;;;;;;9.10;78.60;;;7.81;62.60;98995.59;6153207;23;19921;-79
2023/01/15 09:51:43;;;;;;;;;;;9.10;79.40;;;7.83;63.03;98985.56;6153371;23;19920;-79
2023/01/15 09:54:20;;;;;;;;;;;9.10;79.80;;;7.86;63.56;99006.34;6152525;23;20561;-79
2023/01/15 09:56:47;;;;;;;;;;;9.10;80.20;;;7.85;63.39;99010.03;6152785;23;19948;-79
2023/01/15 09:59:21;;;;;;;;;;;9.10;80.00;;;7.81;63.11;99007.03;6150696;23;19921;-79
2023/01/15 10:01:50;;;;;;;;;;;9.00;79.80;;;7.76;63.18;99012.22;6153077;23;19923;-79
2023/01/15 10:04:28;;;;;;;;;;;9.00;79.90;;;7.82;63.79;99007.84;6152455;23;19920;-79
2023/01/15 10:07:00;;;;;;;;;;;9.00;80.50;;;7.87;63.27;99008.75;6152720;23;19920;-79
2023/01/15 10:09:33;;;;;;;;;;;9.00;80.20;;;7.91;63.95;99012.59;6153359;23;19920;-79
2023/01/15 10:15:00;;;;;;;;;;;9.10;80.20;;;7.92;63.96;99000.91;6151424;23;20602;-79
2023/01/15 10:17:35;;;;;;;;;;;9.10;80.90;;;7.99;63.96;99011.41;6151825;23;20011;-79
2023/01/15 10:20:02;;;;;;;;;;;9.10;81.00;;;8.04;63.84;98998.25;6152974;23;19975;-79
2023/01/15 10:22:50;;;;;;;;;;;9.20;80.70;;;7.98;62.63;99023.88;6152697;23;19916;-79
2023/01/15 10:25:20;;;;;;;;;;;9.10;79.60;;;8.01;62.33;99012.00;6151909;23;20339;-79
2023/01/15 10:27:50;;;;;;;;;;;9.10;79.40;;;7.87;62.13;99035.31;6152378;23;19983;-79
2023/01/15 10:30:23;;;;;;;;;;;9.00;79.10;;;7.89;62.40;99027.09;6152694;23;19920;-79
2023/01/15 10:32:55;;;;;;;;;;;9.00;79.60;;;7.96;61.87;99025.16;6152773;23;20405;-79
2023/01/15 10:35:41;;;;;;;;;;;9.10;79.10;;;7.93;62.34;99020.31;6152005;23;19927;-79
2023/01/15 10:38:16;;;;;;;;;;;9.10;79.40;;;7.90;61.67;99023.41;6152461;23;20336;-79
2023/01/15 10:40:54;;;;;;;;;;;9.10;78.60;;;7.97;61.97;99030.25;6152841;23;20303;-78
2023/01/15 10:43:25;;;;;;;;;;;9.20;79.20;;;7.95;60.88;99023.53;6153103;23;20544;-79
2023/01/15 10:45:55;;;;;;;;;;;9.20;77.80;;;7.94;61.02;99030.69;6149959;23;20323;-79
2023/01/15 10:48:30;;;;;;;;;;;9.10;78.00;;;7.85;60.99;99017.97;6152332;23;20008;-79
2023/01/15 10:51:00;;;;;;;;;;;9.00;77.30;;;7.86;61.34;99009.81;6152443;23;19920;-79
2023/01/15 10:53:32;;;;;;;;;;;9.10;78.00;;;7.91;60.90;99023.19;6152995;23;19921;-79
2023/01/15 10:56:08;;;;;;;;;;;9.10;78.00;;;7.94;60.64;99024.56;6148956;23;19921;-81
2023/01/15 10:58:39;;;;;;;;;;;9.10;77.40;;;7.92;60.34;99030.13;6148946;23;19940;-80
2023/01/15 11:01:10;;;;;;;;;;;9.10;77.40;;;7.93;60.75;99028.28;6149658;23;19920;-79
2023/01/15 11:03:40;;;;;;;;;;;9.10;77.70;;;7.90;59.33;99023.41;6152007;23;20008;-79
2023/01/15 11:06:13;;;;;;;;;;;9.00;76.10;;;7.89;59.69;99037.72;6151727;23;19930;-81
2023/01/15 11:08:42;;;;;;;;;;;9.00;76.40;;;7.90;60.49;99042.00;6152432;23;20304;-82
2023/01/15 11:11:17;;;;;;;;;;;9.10;77.40;;;7.92;60.30;99038.09;6152460;23;20233;-82
2023/01/15 11:19:39;;;;;;;;;;;9.10;76.60;;;7.89;60.16;99041.19;6148690;23;19917;-82
2023/01/15 11:22:10;;;;;;;;;;;9.00;77.00;;;7.86;60.22;99051.47;6152605;23;19921;-82
2023/01/15 11:27:15;;;;;;;;;;;9.00;77.20;;;7.88;60.00;99039.56;6150954;23;19927;-78
2023/01/15 11:29:43;;;;;;;;;;;9.00;76.70;;;7.85;60.11;99039.22;6151829;23;20003;-81
2023/01/15 11:32:20;;;;;;;;;;;9.00;76.90;;;7.84;59.57;99040.25;6152110;23;19920;-81
2023/01/15 11:34:54;;;;;;;;;;;8.90;76.50;;;7.80;59.94;99033.78;6147579;23;20366;-81
2023/01/15 11:37:21;;;;;;;;;;;9.00;76.80;;;7.83;61.00;99017.41;6121469;23;19927;-82
2023/01/15 11:39:55;;;;;;;;;;;9.00;77.60;;;7.79;59.89;99029.53;6121194;23;20011;-81
2023/01/15 11:50:54;;;;;;;;;;;9.00;76.60;;;7.88;59.66;99010.38;6119702;23;19917;-83
2023/01/15 11:53:24;;;;;;;;;;;9.00;76.60;;;7.90;60.70;99023.41;6121891;23;19920;-83
2023/01/15 11:55:59;;;;;;;;;;;9.00;77.40;;;7.88;60.03;99009.56;6121393;23;19948;-83
2023/01/15 11:58:29;;;;;;;;;;;9.00;76.60;;;7.85;59.49;99015.31;6122150;23;19947;-83
2023/01/15 12:00:57;;;;;;;;;;;9.00;76.20;;;7.85;59.54;99021.44;6121942;23;19932;-82
2023/01/15 12:03:27;;;;;;;;;;;9.00;76.20;;;7.88;59.66;99030.81;6119795;23;19931;-81
2023/01/15 12:05:58;;;;;;;;;;;9.00;76.30;;;7.88;59.90;99047.53;6120908;23;20004;-81
2023/01/15 12:08:37;;;;;;;;;;;9.20;76.50;;;7.92;60.02;99039.94;6121700;23;20003;-80
2023/01/15 12:11:15;;;;;;;;;;;9.10;76.80;;;7.92;59.23;99053.22;6121969;23;19917;-82
2023/01/15 12:13:51;;;;;;;;;;;9.10;75.80;;;7.93;59.24;99029.06;6121874;23;19947;-82
2023/01/15 12:16:26;;;;;;;;;;;9.10;76.00;;;7.98;60.32;99031.03;6120930;23;19917;-80
2023/01/15 12:18:56;;;;;;;;;;;9.10;77.00;;;7.91;58.94;99022.41;6121432;23;19921;-80
2023/01/15 12:21:37;;;;;;;;;;;9.10;75.80;;;7.88;59.31;99025.50;6122111;23;19999;-80
2023/01/15 12:24:19;;;;;;;;;;;9.10;75.90;;;7.72;58.98;99027.78;6121245;23;19931;-80
2023/01/15 12:26:57;;;;;;;;;;;9.00;75.40;;;7.67;59.91;99032.97;6120765;23;19925;-85
2023/01/15 12:29:27;;;;;;;;;;;8.90;76.40;;;7.74;60.09;99011.63;6121858;23;19921;-80
2023/01/15 12:31:59;;;;;;;;;;;9.00;76.70;;;7.78;59.89;99034.03;6121744;23;19971;-79
2023/01/15 12:34:30;;;;;;;;;;;9.00;76.40;;;7.81;60.03;99011.50;6122123;23;20259;-80